createdAt,value
2018-04-27T00:01:01.015Z,3.63
2018-04-27T00:03:32.978Z,3.50
2018-04-27T00:06:05.278Z,3.60
2018-04-27T00:08:37.345Z,3.62
2018-04-27T00:11:09.286Z,4.13
2018-04-27T00:13:40.971Z,3.70
2018-04-27T00:16:13.057Z,3.92
2018-04-27T00:18:44.984Z,4.00
2018-04-27T00:21:16.710Z,3.37
2018-04-27T00:28:57.269Z,3.30
2018-04-27T00:31:29.162Z,3.30
2018-04-27T00:34:01.082Z,3.47
2018-04-27T00:36:32.993Z,3.73
2018-04-27T00:39:04.815Z,3.57
2018-04-27T00:44:07.573Z,3.40
2018-04-27T00:46:39.488Z,3.80
2018-04-27T00:49:11.719Z,3.62
2018-04-27T00:51:43.694Z,4.25
2018-04-27T00:54:15.583Z,4.00
2018-04-27T00:56:47.507Z,3.60
2018-04-27T00:59:19.079Z,3.60
2018-04-27T01:01:50.810Z,3.63
2018-04-27T01:04:22.552Z,3.10
2018-04-27T01:07:53.555Z,3.70
2018-04-27T01:10:25.374Z,3.43
2018-04-27T01:12:57.016Z,3.20
2018-04-27T01:15:28.579Z,3.80
2018-04-27T01:18:00.182Z,3.50
2018-04-27T01:20:31.588Z,3.90
2018-04-27T01:23:03.303Z,3.10
2018-04-27T01:26:26.597Z,3.90
2018-04-27T01:28:59.028Z,3.70
2018-04-27T01:31:30.986Z,3.67
2018-04-27T01:34:31.579Z,3.83
2018-04-27T01:37:04.816Z,3.47
2018-04-27T01:39:37.406Z,3.22
2018-04-27T01:42:09.455Z,3.47
2018-04-27T01:44:42.091Z,3.30
2018-04-27T01:47:13.515Z,3.53
2018-04-27T01:49:45.049Z,3.83
2018-04-27T01:52:17.054Z,3.20
2018-04-27T01:54:49.464Z,3.50
2018-04-27T01:57:21.535Z,3.50
2018-04-27T01:59:53.741Z,3.65
2018-04-27T02:02:25.555Z,3.83
2018-04-27T02:05:45.446Z,3.53
2018-04-27T02:08:17.502Z,3.70
2018-04-27T02:10:49.310Z,3.80
2018-04-27T02:13:21.224Z,3.30
2018-04-27T02:15:53.201Z,3.40
2018-04-27T02:18:24.937Z,3.70
2018-04-27T02:20:56.757Z,3.40
2018-04-27T02:23:28.423Z,3.60
2018-04-27T02:26:00.096Z,3.50
2018-04-27T02:31:02.999Z,3.40
2018-04-27T02:33:34.542Z,3.47
2018-04-27T02:36:08.234Z,3.70
2018-04-27T02:38:40.042Z,3.40
2018-04-27T02:41:11.878Z,4.13
2018-04-27T02:43:44.260Z,3.70
2018-04-27T02:46:17.073Z,3.37
2018-04-27T02:48:49.295Z,3.70
2018-04-27T02:51:21.015Z,3.37
2018-04-27T02:53:53.073Z,3.30
2018-04-27T02:56:25.042Z,3.63
2018-04-27T02:58:57.089Z,6.00
2018-04-27T03:01:28.864Z,3.50
2018-04-27T03:04:01.229Z,3.20
2018-04-27T03:06:33.049Z,3.10
2018-04-27T03:09:04.507Z,3.20
2018-04-27T03:14:06.983Z,3.30
2018-04-27T03:16:38.509Z,3.17
2018-04-27T03:19:10.261Z,3.10
2018-04-27T03:21:42.023Z,3.42
2018-04-27T03:24:13.519Z,3.60
2018-04-27T03:26:45.242Z,3.40
2018-04-27T03:29:17.274Z,3.10
2018-04-27T03:31:49.019Z,3.17
2018-04-27T03:34:21.091Z,2.80
2018-04-27T03:36:52.789Z,3.10
2018-04-27T03:39:24.881Z,3.20
2018-04-27T03:41:56.739Z,2.90
2018-04-27T03:44:28.417Z,3.20
2018-04-27T03:47:00.155Z,2.87
2018-04-27T03:49:32.389Z,3.30
2018-04-27T03:52:04.529Z,3.10
2018-04-27T03:54:36.454Z,3.17
2018-04-27T03:57:08.513Z,3.10
2018-04-27T03:59:51.435Z,3.50
2018-04-27T04:02:34.916Z,3.28
2018-04-27T04:05:17.520Z,3.93
2018-04-27T04:07:49.597Z,4.30
2018-04-27T04:10:21.905Z,4.70
2018-04-27T04:15:38.526Z,3.90
2018-04-27T04:18:11.382Z,3.85
2018-04-27T04:20:44.232Z,3.47
2018-04-27T04:23:16.440Z,3.37
2018-04-27T04:25:48.755Z,3.25
2018-04-27T04:28:20.746Z,3.37
2018-04-27T04:30:53.765Z,3.58
2018-04-27T04:33:27.576Z,3.72
2018-04-27T04:35:59.369Z,4.20
2018-04-27T04:38:31.502Z,3.10
2018-04-27T04:41:03.004Z,3.60
2018-04-27T04:43:34.483Z,3.43
2018-04-27T04:46:06.436Z,3.33
2018-04-27T04:48:39.370Z,3.53
2018-04-27T04:51:12.396Z,3.40
2018-04-27T04:53:44.439Z,3.13
2018-04-27T04:56:16.498Z,3.47
2018-04-27T04:58:48.816Z,3.35
2018-04-27T05:01:20.502Z,2.97
2018-04-27T05:03:52.376Z,3.60
2018-04-27T05:06:24.041Z,3.50
2018-04-27T05:08:56.187Z,2.70
2018-04-27T05:16:26.247Z,3.43
2018-04-27T05:19:05.409Z,3.30
2018-04-27T05:21:36.924Z,2.87
2018-04-27T05:24:08.717Z,3.20
2018-04-27T05:26:40.403Z,3.60
2018-04-27T05:29:12.582Z,3.50
2018-04-27T05:31:44.467Z,3.25
2018-04-27T05:34:16.805Z,3.30
2018-04-27T05:36:48.638Z,3.40
2018-04-27T05:39:20.527Z,3.43
2018-04-27T05:41:52.414Z,3.05
2018-04-27T05:44:24.111Z,3.00
2018-04-27T05:46:56.211Z,3.05
2018-04-27T05:49:28.379Z,3.53
2018-04-27T05:52:00.043Z,3.25
2018-04-27T05:54:32.063Z,3.37
2018-04-27T05:57:03.758Z,3.43
2018-04-27T05:59:35.527Z,3.67
2018-04-27T06:02:09.668Z,3.30
2018-04-27T06:04:41.492Z,3.30
2018-04-27T06:07:13.056Z,3.67
2018-04-27T06:09:44.741Z,3.90
2018-04-27T06:12:16.395Z,3.30
2018-04-27T06:14:48.103Z,3.87
2018-04-27T06:17:19.657Z,3.67
2018-04-27T06:19:51.934Z,3.95
2018-04-27T06:22:25.308Z,3.90
2018-04-27T06:24:57.218Z,3.78
2018-04-27T06:27:28.895Z,3.87
2018-04-27T06:30:01.308Z,3.60
2018-04-27T06:32:34.304Z,3.60
2018-04-27T06:35:07.720Z,4.07
2018-04-27T06:37:41.532Z,3.92
2018-04-27T06:40:14.739Z,3.53
2018-04-27T06:42:48.735Z,3.50
2018-04-27T06:45:22.258Z,3.87
2018-04-27T06:47:55.744Z,4.00
2018-04-27T06:50:28.508Z,3.40
2018-04-27T06:53:01.919Z,3.35
2018-04-27T06:55:35.667Z,3.20
2018-04-27T06:58:08.683Z,3.83
2018-04-27T07:00:42.565Z,4.00
2018-04-27T07:03:15.404Z,3.47
2018-04-27T07:05:48.437Z,3.40
2018-04-27T07:08:21.953Z,3.80
2018-04-27T07:10:54.446Z,3.83
2018-04-27T07:13:27.257Z,3.80
2018-04-27T07:16:00.455Z,3.50
2018-04-27T07:18:33.625Z,3.95
2018-04-27T07:21:06.680Z,3.73
2018-04-27T07:23:39.428Z,3.83
2018-04-27T07:26:13.049Z,3.40
2018-04-27T07:28:45.990Z,4.33
2018-04-27T07:31:19.287Z,3.75
2018-04-27T07:33:52.500Z,4.32
2018-04-27T07:36:26.472Z,4.18
2018-04-27T07:38:59.544Z,3.85
2018-04-27T07:41:33.072Z,3.85
2018-04-27T07:44:06.774Z,3.50
2018-04-27T07:46:39.526Z,3.47
2018-04-27T07:49:12.485Z,3.83
2018-04-27T07:51:45.550Z,3.90
2018-04-27T07:54:17.957Z,4.13
2018-04-27T07:56:51.330Z,3.70
2018-04-27T07:59:23.941Z,3.87
2018-04-27T08:01:56.492Z,3.70
2018-04-27T08:04:29.456Z,3.60
2018-04-27T08:07:02.625Z,3.70
2018-04-27T08:09:35.450Z,4.30
2018-04-27T08:12:08.627Z,3.63
2018-04-27T08:17:22.422Z,3.78
2018-04-27T08:19:55.563Z,3.93
2018-04-27T08:22:28.039Z,4.47
2018-04-27T08:25:00.940Z,3.73
2018-04-27T08:27:33.547Z,3.77
2018-04-27T08:30:07.062Z,3.67
2018-04-27T08:32:40.013Z,4.37
2018-04-27T08:35:12.931Z,3.60
2018-04-27T08:37:45.854Z,4.28
2018-04-27T08:40:19.017Z,4.00
2018-04-27T08:42:52.392Z,3.70
2018-04-27T08:45:25.619Z,4.20
2018-04-27T08:47:58.480Z,3.83
2018-04-27T08:50:31.708Z,3.55
2018-04-27T08:53:04.412Z,3.80
2018-04-27T08:55:36.968Z,3.80
2018-04-27T08:58:10.291Z,3.90
2018-04-27T09:00:43.266Z,3.90
2018-04-27T09:03:16.258Z,4.03
2018-04-27T09:05:49.759Z,4.32
2018-04-27T09:08:22.752Z,3.90
2018-04-27T09:10:56.548Z,4.60
2018-04-27T09:13:30.619Z,4.40
2018-04-27T09:16:03.374Z,4.50
2018-04-27T09:18:36.404Z,4.35
2018-04-27T09:21:09.719Z,4.75
2018-04-27T09:23:42.367Z,4.10
2018-04-27T09:26:15.709Z,4.30
2018-04-27T09:28:48.137Z,4.10
2018-04-27T09:31:21.287Z,4.60
2018-04-27T09:33:54.657Z,4.28
2018-04-27T09:36:28.386Z,4.53
2018-04-27T09:39:01.026Z,4.60
2018-04-27T09:41:34.060Z,4.40
2018-04-27T09:44:06.602Z,4.55
2018-04-27T09:46:40.470Z,4.28
2018-04-27T09:49:13.532Z,4.28
2018-04-27T09:51:47.298Z,4.18
2018-04-27T09:54:20.229Z,4.57
2018-04-27T09:56:53.443Z,4.63
2018-04-27T09:59:26.396Z,4.30
2018-04-27T10:01:59.228Z,4.30
2018-04-27T10:04:32.414Z,4.00
2018-04-27T10:07:05.719Z,4.10
2018-04-27T10:09:38.975Z,4.50
2018-04-27T10:12:12.457Z,4.90
2018-04-27T10:14:45.468Z,4.80
2018-04-27T10:17:18.673Z,4.62
2018-04-27T10:19:52.226Z,3.93
2018-04-27T10:22:25.511Z,4.17
2018-04-27T10:24:58.512Z,4.25
2018-04-27T10:27:32.522Z,4.35
2018-04-27T10:30:05.216Z,4.70
2018-04-27T10:32:38.293Z,4.20
2018-04-27T10:35:11.382Z,4.40
2018-04-27T10:37:44.487Z,4.35
2018-04-27T10:40:17.473Z,4.93
2018-04-27T10:42:50.844Z,4.20
2018-04-27T10:45:23.487Z,4.35
2018-04-27T10:47:56.588Z,4.47
2018-04-27T10:50:29.858Z,4.47
2018-04-27T10:53:03.938Z,4.35
2018-04-27T10:55:37.542Z,4.20
2018-04-27T10:58:10.419Z,5.00
2018-04-27T11:00:43.433Z,4.57
2018-04-27T11:03:16.777Z,4.45
2018-04-27T11:05:49.707Z,4.93
2018-04-27T11:08:23.520Z,4.65
2018-04-27T11:10:57.006Z,4.33
2018-04-27T11:13:30.724Z,4.75
2018-04-27T11:16:03.927Z,4.05
2018-04-27T11:18:37.718Z,4.80
2018-04-27T11:21:11.920Z,4.05
2018-04-27T11:23:45.021Z,5.40
2018-04-27T11:26:18.454Z,4.67
2018-04-27T11:28:51.391Z,5.43
2018-04-27T11:31:24.082Z,5.50
2018-04-27T11:33:57.515Z,4.73
2018-04-27T11:36:30.676Z,4.57
2018-04-27T11:39:03.649Z,4.60
2018-04-27T11:41:36.941Z,4.50
2018-04-27T11:44:09.948Z,4.32
2018-04-27T11:46:43.421Z,4.83
2018-04-27T11:49:16.627Z,5.00
2018-04-27T11:54:22.387Z,4.78
2018-04-27T11:56:55.610Z,4.47
2018-04-27T11:59:29.477Z,5.05
2018-04-27T12:02:03.017Z,4.57
2018-04-27T12:04:35.511Z,4.90
2018-04-27T12:07:08.422Z,4.73
2018-04-27T12:09:41.413Z,4.03
2018-04-27T12:12:14.566Z,4.90
2018-04-27T12:14:47.399Z,5.12
2018-04-27T12:17:20.215Z,4.50
2018-04-27T12:19:52.697Z,4.60
2018-04-27T12:22:26.060Z,5.03
2018-04-27T12:24:59.310Z,4.80
2018-04-27T12:27:31.664Z,4.30
2018-04-27T12:30:04.468Z,4.80
2018-04-27T12:32:37.519Z,4.67
2018-04-27T12:35:10.626Z,4.60
2018-04-27T12:37:43.998Z,5.20
2018-04-27T12:40:16.599Z,4.73
2018-04-27T12:42:49.584Z,5.07
2018-04-27T12:45:22.393Z,4.80
2018-04-27T12:47:55.296Z,4.35
2018-04-27T12:50:28.329Z,5.23
2018-04-27T12:53:01.505Z,4.57
2018-04-27T12:55:34.748Z,4.32
2018-04-27T13:00:39.373Z,4.95
2018-04-27T13:03:12.424Z,5.37
2018-04-27T13:05:46.061Z,4.95
2018-04-27T13:08:18.768Z,4.60
2018-04-27T13:10:51.639Z,5.03
2018-04-27T13:13:24.440Z,5.00
2018-04-27T13:15:57.045Z,5.57
2018-04-27T13:18:30.456Z,4.80
2018-04-27T13:21:03.384Z,5.12
2018-04-27T13:23:36.630Z,5.17
2018-04-27T13:26:09.765Z,4.85
2018-04-27T13:28:42.964Z,5.15
2018-04-27T13:31:15.938Z,5.17
2018-04-27T13:33:48.572Z,4.70
2018-04-27T13:36:21.664Z,5.23
2018-04-27T13:38:54.151Z,5.07
2018-04-27T13:41:27.305Z,4.77
2018-04-27T13:44:00.435Z,5.13
2018-04-27T13:46:33.203Z,5.00
2018-04-27T13:49:06.055Z,5.32
2018-04-27T13:51:39.464Z,5.73
2018-04-27T13:54:12.421Z,4.67
2018-04-27T13:56:45.070Z,5.00
2018-04-27T13:59:18.097Z,5.20
2018-04-27T14:01:51.445Z,4.55
2018-04-27T14:04:24.454Z,5.25
2018-04-27T14:06:57.781Z,5.12
2018-04-27T14:09:31.301Z,4.40
2018-04-27T14:12:04.017Z,4.80
2018-04-27T14:14:36.693Z,4.60
2018-04-27T14:17:09.521Z,5.10
2018-04-27T14:19:42.704Z,5.18
2018-04-27T14:22:16.515Z,5.30
2018-04-27T14:24:50.206Z,4.83
2018-04-27T14:27:22.692Z,4.93
2018-04-27T14:29:55.023Z,4.90
2018-04-27T14:32:28.521Z,4.85
2018-04-27T14:35:02.348Z,5.32
2018-04-27T14:37:35.405Z,4.90
2018-04-27T14:40:08.824Z,5.27
2018-04-27T14:42:42.632Z,4.70
2018-04-27T14:45:15.515Z,5.30
2018-04-27T14:47:48.463Z,5.60
2018-04-27T14:50:21.410Z,5.40
2018-04-27T14:52:54.422Z,4.93
2018-04-27T14:55:28.469Z,5.20
2018-04-27T14:58:01.788Z,5.17
2018-04-27T15:00:34.741Z,5.15
2018-04-27T15:03:08.220Z,5.03
2018-04-27T15:05:41.450Z,5.33
2018-04-27T15:08:14.586Z,5.87
2018-04-27T15:10:47.569Z,5.77
2018-04-27T15:13:21.550Z,6.00
2018-04-27T15:15:54.438Z,6.70
2018-04-27T15:18:27.541Z,6.00
2018-04-27T15:21:00.462Z,5.40
2018-04-27T15:23:33.915Z,5.20
2018-04-27T15:26:07.405Z,5.10
2018-04-27T15:28:39.946Z,5.33
2018-04-27T15:31:13.689Z,5.40
2018-04-27T15:33:48.656Z,5.23
2018-04-27T15:36:21.947Z,4.95
2018-04-27T15:38:54.741Z,5.13
2018-04-27T15:41:28.553Z,5.17
2018-04-27T15:46:33.525Z,4.70
2018-04-27T15:49:06.892Z,4.87
2018-04-27T15:51:39.526Z,4.85
2018-04-27T15:54:12.632Z,4.93
2018-04-27T15:56:45.167Z,4.83
2018-04-27T15:59:18.053Z,4.70
2018-04-27T16:01:50.436Z,4.65
2018-04-27T16:04:24.241Z,4.43
2018-04-27T16:06:57.107Z,4.57
2018-04-27T16:09:30.483Z,5.10
2018-04-27T16:12:03.397Z,4.43
2018-04-27T16:14:35.948Z,4.50
2018-04-27T16:17:09.304Z,4.70
2018-04-27T16:19:42.161Z,4.83
2018-04-27T16:22:15.410Z,4.30
2018-04-27T16:24:48.479Z,4.65
2018-04-27T16:27:21.331Z,4.93
2018-04-27T16:29:54.029Z,4.30
2018-04-27T16:32:27.314Z,4.35
2018-04-27T16:35:00.704Z,5.82
2018-04-27T16:37:34.085Z,4.27
2018-04-27T16:40:08.520Z,4.97
2018-04-27T16:42:42.667Z,4.87
2018-04-27T16:45:16.919Z,4.23
2018-04-27T16:50:21.875Z,4.43
2018-04-27T16:52:53.532Z,4.93
2018-04-27T16:55:25.012Z,4.37
2018-04-27T16:57:56.937Z,4.17
2018-04-27T17:00:28.491Z,4.40
2018-04-27T17:03:00.179Z,4.83
2018-04-27T17:05:31.612Z,4.30
2018-04-27T17:08:03.562Z,4.10
2018-04-27T17:10:35.410Z,3.70
2018-04-27T17:13:07.321Z,3.92
2018-04-27T17:15:38.950Z,3.47
2018-04-27T17:18:10.535Z,3.73
2018-04-27T17:20:42.431Z,4.50
2018-04-27T17:23:14.418Z,3.70
2018-04-27T17:25:45.965Z,3.80
2018-04-27T17:28:20.059Z,3.87
2018-04-27T17:30:53.430Z,3.40
2018-04-27T17:33:25.328Z,4.07
2018-04-27T17:35:56.955Z,3.87
2018-04-27T17:38:28.585Z,3.67
2018-04-27T17:41:02.547Z,3.78
2018-04-27T17:43:34.254Z,3.47
2018-04-27T17:46:05.964Z,3.78
2018-04-27T17:48:37.326Z,3.65
2018-04-27T17:51:08.946Z,3.53
2018-04-27T17:53:41.060Z,3.67
2018-04-27T17:56:12.987Z,3.80
2018-04-27T17:58:45.063Z,3.70
2018-04-27T18:01:17.032Z,3.58
2018-04-27T18:03:48.933Z,3.45
2018-04-27T18:06:21.056Z,3.17
2018-04-27T18:08:52.563Z,3.70
2018-04-27T18:13:54.981Z,3.97
2018-04-27T18:16:26.553Z,3.67
2018-04-27T18:18:58.335Z,3.40
2018-04-27T18:21:29.967Z,3.80
2018-04-27T18:24:01.677Z,3.10
2018-04-27T18:26:33.301Z,3.57
2018-04-27T18:29:04.951Z,3.60
2018-04-27T18:31:36.498Z,3.63
2018-04-27T18:34:10.549Z,4.60
2018-04-27T18:36:44.442Z,3.37
2018-04-27T18:39:18.219Z,3.70
2018-04-27T18:41:51.340Z,4.72
2018-04-27T18:44:25.352Z,3.90
2018-04-27T18:46:58.549Z,3.80
2018-04-27T18:49:32.558Z,3.70
2018-04-27T18:52:05.616Z,3.40
2018-04-27T18:54:38.946Z,3.60
2018-04-27T18:57:11.891Z,3.50
2018-04-27T18:59:51.869Z,3.65
2018-04-27T19:02:24.496Z,3.90
2018-04-27T19:04:57.431Z,3.53
2018-04-27T19:07:30.452Z,3.70
2018-04-27T19:10:03.110Z,4.00
2018-04-27T19:12:35.943Z,3.60
2018-04-27T19:15:08.987Z,3.40
2018-04-27T19:17:42.180Z,3.60
2018-04-27T19:20:15.080Z,3.50
2018-04-27T19:22:48.139Z,3.50
2018-04-27T19:25:21.433Z,4.05
2018-04-27T19:27:54.462Z,3.50
2018-04-27T19:30:27.701Z,3.40
2018-04-27T19:33:01.355Z,2.90
2018-04-27T19:35:34.557Z,3.90
2018-04-27T19:38:07.346Z,3.50
2018-04-27T19:40:41.247Z,3.50
2018-04-27T19:43:14.090Z,3.50
2018-04-27T19:45:47.113Z,3.13
2018-04-27T19:48:20.514Z,3.20
2018-04-27T19:50:53.694Z,3.10
2018-04-27T19:53:27.032Z,3.50
2018-04-27T19:56:00.551Z,3.40
2018-04-27T19:58:35.439Z,3.07
2018-04-27T20:01:08.674Z,3.27
2018-04-27T20:03:42.170Z,3.30
2018-04-27T20:06:15.433Z,3.43
2018-04-27T20:08:47.981Z,3.03
2018-04-27T20:11:21.094Z,2.97
2018-04-27T20:13:54.157Z,3.27
2018-04-27T20:17:09.447Z,3.30
2018-04-27T20:19:46.381Z,3.30
2018-04-27T20:22:22.399Z,3.25
2018-04-27T20:24:57.398Z,3.00
2018-04-27T20:30:35.573Z,3.13
2018-04-27T20:33:10.296Z,2.62
2018-04-27T20:35:43.497Z,3.00
2018-04-27T20:38:22.920Z,2.70
2018-04-27T20:40:55.663Z,3.10
2018-04-27T20:43:29.246Z,2.80
2018-04-27T20:46:02.638Z,3.00
2018-04-27T20:48:35.616Z,3.30
2018-04-27T20:51:10.498Z,3.03
2018-04-27T20:54:00.848Z,2.90
2018-04-27T20:59:38.569Z,3.20
2018-04-27T21:02:11.372Z,2.87
2018-04-27T21:04:44.247Z,3.10
2018-04-27T21:07:17.941Z,3.10
2018-04-27T21:09:51.039Z,2.80
2018-04-27T21:12:23.373Z,2.87
2018-04-27T21:14:57.514Z,2.80
2018-04-27T21:17:29.915Z,2.80
2018-04-27T21:20:02.374Z,2.72
2018-04-27T21:24:08.225Z,2.63
2018-04-27T21:26:40.508Z,3.00
2018-04-27T21:29:12.454Z,2.90
2018-04-27T21:31:45.086Z,2.80
2018-04-27T21:34:17.040Z,2.72
2018-04-27T21:36:56.221Z,2.93
2018-04-27T21:39:36.449Z,3.10
2018-04-27T21:45:14.534Z,2.43
2018-04-27T21:47:50.218Z,3.10
2018-04-27T21:50:24.754Z,2.80
2018-04-27T21:52:57.251Z,2.50
2018-04-27T21:55:28.957Z,2.70
2018-04-27T21:58:06.094Z,2.60
2018-04-27T22:00:39.398Z,2.60
2018-04-27T22:03:49.335Z,2.60
2018-04-27T22:06:23.099Z,2.67
2018-04-27T22:09:10.448Z,2.55
2018-04-27T22:11:46.961Z,2.60
2018-04-27T22:14:36.929Z,2.40
2018-04-27T22:17:18.658Z,2.70
2018-04-27T22:19:50.247Z,2.50
2018-04-27T22:22:23.394Z,2.60
2018-04-27T22:24:55.581Z,2.60
2018-04-27T22:27:31.316Z,2.70
2018-04-27T22:30:05.254Z,2.67
2018-04-27T22:32:39.522Z,2.55
2018-04-27T22:35:16.502Z,2.87
2018-04-27T22:37:49.572Z,2.92
2018-04-27T22:43:41.743Z,2.62
2018-04-27T22:46:14.442Z,2.90
2018-04-27T22:48:50.249Z,2.50
2018-04-27T22:51:27.470Z,2.50
2018-04-27T22:54:02.214Z,2.60
2018-04-27T22:56:48.145Z,2.70
2018-04-27T23:02:06.884Z,2.83
2018-04-27T23:04:38.780Z,2.70
2018-04-27T23:07:10.293Z,2.80
2018-04-27T23:09:41.963Z,2.77
2018-04-27T23:12:14.257Z,4.18
2018-04-27T23:14:49.014Z,2.70
2018-04-27T23:17:21.476Z,3.40
2018-04-27T23:19:56.809Z,2.47
2018-04-27T23:22:42.073Z,2.25
2018-04-27T23:25:31.327Z,2.40
2018-04-27T23:28:02.973Z,2.20
2018-04-27T23:30:37.329Z,2.47
2018-04-27T23:33:08.870Z,2.35
2018-04-27T23:38:47.591Z,2.40
2018-04-27T23:41:19.015Z,2.50
2018-04-27T23:43:50.784Z,2.90
2018-04-27T23:46:26.242Z,2.75
2018-04-27T23:48:57.860Z,2.30
2018-04-27T23:51:29.564Z,2.00
2018-04-27T23:54:01.958Z,2.33
2018-04-27T23:56:36.664Z,2.37
2018-04-27T23:59:08.493Z,2.42
